Time;durP1;ratioP1;P1;durP2;ratioP2;P2;SDS_P1;SDS_P2;PMS_P1;PMS_P2;Temp;Humidity;BMP_temperature;BMP_pressure;BME280_temperature;BME280_humidity;BME280_pressure;Samples;Min_cycle;Max_cycle;Signal;HPM_P1;HPM_P2
2023/02/04 10:12:21;;;;;;;14.23;12.20;;;16.60;95.90;;;;;;5027451;28;20826;-85
2023/02/04 10:14:48;;;;;;;13.77;12.47;;;14.40;98.20;;;;;;5023806;28;20489;-86
2023/02/04 10:17:19;;;;;;;13.50;12.10;;;13.70;98.70;;;;;;5026445;28;20457;-87
2023/02/04 10:19:46;;;;;;;12.57;11.53;;;13.50;99.90;;;;;;5026586;28;20450;-87
2023/02/04 10:22:18;;;;;;;13.30;12.00;;;13.60;99.10;;;;;;5026225;28;20782;-85
2023/02/04 10:24:45;;;;;;;12.67;11.43;;;13.30;98.20;;;;;;5026618;28;20453;-86
2023/02/04 10:27:15;;;;;;;12.67;11.67;;;11.90;97.40;;;;;;5026114;28;20802;-84
2023/02/04 10:29:56;;;;;;;14.23;13.03;;;11.40;99.90;;;;;;5025699;28;20453;-84
2023/02/04 10:32:27;;;;;;;16.30;12.00;;;10.90;99.90;;;;;;5025080;28;20454;-84
2023/02/04 10:34:58;;;;;;;13.10;11.93;;;10.90;99.90;;;;;;5028229;28;20714;-85
2023/02/04 10:37:25;;;;;;;18.33;12.27;;;10.50;99.90;;;;;;5025924;28;20511;-83
2023/02/04 10:39:52;;;;;;;16.10;13.17;;;10.40;99.90;;;;;;5025677;28;20480;-84
2023/02/04 10:42:22;;;;;;;15.30;12.87;;;10.10;99.90;;;;;;5025966;28;20822;-83
2023/02/04 10:44:50;;;;;;;12.73;11.83;;;9.80;99.90;;;;;;5026088;28;20460;-83
2023/02/04 10:47:19;;;;;;;13.73;12.23;;;10.00;99.90;;;;;;5025817;28;20450;-83
2023/02/04 10:49:53;;;;;;;12.60;11.60;;;10.00;99.90;;;;;;5025401;28;20464;-83
2023/02/04 10:52:22;;;;;;;13.03;12.03;;;9.90;99.90;;;;;;5024789;28;20457;-84
2023/02/04 10:54:49;;;;;;;14.17;12.73;;;9.80;99.90;;;;;;5025314;28;20449;-84
2023/02/04 10:57:19;;;;;;;14.23;12.10;;;10.00;99.90;;;;;;5024566;28;20461;-81
2023/02/04 10:59:47;;;;;;;15.47;12.63;;;10.10;99.90;;;;;;5025057;28;20453;-83
2023/02/04 11:02:36;;;;;;;11.80;10.97;;;9.90;99.90;;;;;;5025120;28;20960;-82
2023/02/04 11:05:04;;;;;;;13.10;11.80;;;10.00;99.90;;;;;;5024500;28;20480;-83
2023/02/04 11:07:30;;;;;;;13.53;12.30;;;10.00;99.90;;;;;;5025051;28;20469;-81
2023/02/04 11:09:57;;;;;;;13.17;12.17;;;9.70;99.90;;;;;;5024805;28;20449;-83
2023/02/04 11:12:37;;;;;;;11.53;10.63;;;9.40;99.90;;;;;;5035230;28;20459;-83
2023/02/04 11:15:05;;;;;;;13.90;11.73;;;9.40;99.90;;;;;;5031248;28;20453;-85
2023/02/04 11:17:35;;;;;;;13.50;12.10;;;10.00;99.90;;;;;;5031105;28;20460;-84
2023/02/04 11:20:14;;;;;;;13.17;12.00;;;11.00;99.90;;;;;;5031240;28;20472;-84
2023/02/04 11:22:43;;;;;;;13.77;12.70;;;12.90;99.90;;;;;;5031073;28;20846;-85
2023/02/04 11:25:31;;;;;;;12.70;11.80;;;13.90;96.20;;;;;;5030956;28;20461;-85
2023/02/04 11:27:57;;;;;;;13.40;12.20;;;14.30;94.50;;;;;;5031606;28;20445;-85
2023/02/04 11:30:30;;;;;;;15.33;13.23;;;13.80;95.20;;;;;;5030974;28;20941;-86
2023/02/04 11:33:03;;;;;;;12.20;11.20;;;13.70;95.90;;;;;;5030953;28;20446;-84
2023/02/04 11:35:30;;;;;;;14.10;10.90;;;13.50;96.30;;;;;;5031101;28;20524;-84
2023/02/04 11:37:57;;;;;;;20.43;12.73;;;13.10;96.00;;;;;;5031101;28;20449;-86
2023/02/04 11:40:28;;;;;;;14.23;12.13;;;12.60;96.90;;;;;;5031280;28;20832;-84
2023/02/04 11:43:00;;;;;;;12.93;11.87;;;12.50;98.20;;;;;;5031611;28;20457;-84
2023/02/04 11:45:30;;;;;;;16.10;13.00;;;12.20;98.40;;;;;;5031076;28;20948;-82
2023/02/04 11:48:00;;;;;;;13.80;12.10;;;11.70;99.30;;;;;;5031183;28;20457;-83
2023/02/04 11:50:31;;;;;;;13.17;11.90;;;11.20;99.90;;;;;;5031012;28;20545;-83
2023/02/04 11:53:00;;;;;;;13.20;11.97;;;11.00;99.90;;;;;;5030617;28;20453;-81
2023/02/04 11:55:28;;;;;;;19.97;12.97;;;10.80;99.90;;;;;;5031581;28;20538;-83
2023/02/04 11:57:56;;;;;;;14.27;12.80;;;10.70;99.90;;;;;;5031842;28;20851;-83
2023/02/04 12:00:24;;;;;;;14.33;12.93;;;10.60;99.90;;;;;;5032355;28;20495;-84
2023/02/04 12:02:56;;;;;;;13.20;11.87;;;10.60;99.90;;;;;;5038387;28;20480;-83
2023/02/04 12:05:37;;;;;;;14.27;12.63;;;10.50;99.90;;;;;;5044396;28;20487;-83
2023/02/04 12:08:24;;;;;;;14.33;11.50;;;10.50;99.90;;;;;;5052298;28;20442;-83
2023/02/04 12:10:58;;;;;;;15.17;11.77;;;10.60;99.90;;;;;;5048473;28;20808;-83
2023/02/04 12:13:26;;;;;;;15.33;13.83;;;10.60;99.90;;;;;;5044232;28;20459;-82
2023/02/04 12:15:57;;;;;;;14.13;12.80;;;10.50;99.90;;;;;;5030868;28;20532;-82
2023/02/04 12:18:26;;;;;;;15.37;12.23;;;11.30;99.90;;;;;;5029537;28;20453;-81
2023/02/04 12:20:54;;;;;;;13.40;11.90;;;12.20;99.20;;;;;;5029949;28;20976;-83
2023/02/04 12:23:21;;;;;;;14.67;13.03;;;13.30;96.80;;;;;;5028921;28;20952;-83
2023/02/04 12:25:48;;;;;;;15.63;14.23;;;13.70;94.90;;;;;;5030335;28;20473;-81
2023/02/04 12:28:16;;;;;;;15.33;13.03;;;13.30;95.20;;;;;;5030407;28;20446;-82
2023/02/04 12:30:42;;;;;;;13.90;12.77;;;13.30;95.50;;;;;;5029663;28;20548;-83
2023/02/04 12:33:10;;;;;;;13.43;12.43;;;13.50;93.80;;;;;;5029854;28;20537;-82
2023/02/04 12:35:36;;;;;;;14.27;12.30;;;12.80;94.50;;;;;;5029450;28;20480;-82
2023/02/04 12:38:05;;;;;;;15.63;14.20;;;12.50;95.20;;;;;;5029980;28;20468;-83
2023/02/04 12:40:32;;;;;;;14.33;12.83;;;12.20;95.80;;;;;;5030001;28;20489;-81
2023/02/04 12:42:58;;;;;;;13.00;11.73;;;11.70;96.40;;;;;;5029490;28;20464;-82
2023/02/04 12:45:25;;;;;;;13.17;11.97;;;11.80;96.40;;;;;;5030118;28;20457;-83
2023/02/04 12:47:52;;;;;;;14.03;12.40;;;11.70;97.00;;;;;;5029468;28;20456;-81
2023/02/04 12:50:21;;;;;;;15.30;12.53;;;11.60;97.70;;;;;;5030018;28;20469;-83
2023/02/04 12:52:49;;;;;;;12.10;11.20;;;11.50;97.80;;;;;;5029586;28;20453;-79
2023/02/04 12:55:17;;;;;;;16.30;13.80;;;11.50;98.00;;;;;;5029676;28;20453;-81
2023/02/04 12:57:44;;;;;;;12.17;11.17;;;11.20;98.40;;;;;;5029380;28;20453;-81
2023/02/04 13:00:12;;;;;;;14.63;12.33;;;10.90;98.40;;;;;;5028915;28;20453;-81
2023/02/04 13:02:39;;;;;;;14.63;11.73;;;10.80;99.50;;;;;;5028437;28;20488;-82
2023/02/04 13:05:07;;;;;;;14.30;11.60;;;10.70;99.00;;;;;;5028243;28;20460;-82
2023/02/04 13:07:34;;;;;;;13.83;12.57;;;10.60;99.40;;;;;;5029520;28;20471;-82
2023/02/04 13:10:01;;;;;;;13.00;11.60;;;10.80;99.20;;;;;;5028934;28;20464;-81
2023/02/04 13:12:29;;;;;;;14.97;11.60;;;11.60;98.00;;;;;;5028942;28;20811;-80
2023/02/04 13:14:55;;;;;;;11.97;11.17;;;11.80;97.20;;;;;;5028619;28;20659;-80
2023/02/04 13:17:22;;;;;;;12.03;11.10;;;11.50;96.70;;;;;;5028720;28;20506;-81
2023/02/04 13:19:49;;;;;;;11.80;10.90;;;11.50;97.10;;;;;;5029439;28;20460;-81
2023/02/04 13:22:15;;;;;;;12.93;11.93;;;11.40;96.90;;;;;;5030931;28;20485;-81
2023/02/04 13:24:42;;;;;;;13.97;12.27;;;11.20;97.90;;;;;;5048734;28;20449;-81
2023/02/04 13:27:09;;;;;;;12.33;11.13;;;10.90;98.50;;;;;;5049568;28;20442;-82
2023/02/04 13:29:37;;;;;;;12.97;11.70;;;10.70;98.70;;;;;;5049789;28;20465;-82
2023/02/04 13:32:04;;;;;;;12.87;11.50;;;10.70;99.70;;;;;;5038744;28;20490;-79
2023/02/04 13:34:31;;;;;;;12.50;10.70;;;10.70;99.90;;;;;;5041602;28;20469;-80
2023/02/04 13:36:58;;;;;;;10.97;10.00;;;10.70;99.30;;;;;;5031342;28;20468;-80
2023/02/04 13:39:24;;;;;;;12.80;11.77;;;10.70;98.70;;;;;;5029156;28;20456;-80
2023/02/04 13:41:51;;;;;;;12.73;11.53;;;10.70;98.80;;;;;;5029091;28;20493;-81
2023/02/04 13:44:18;;;;;;;14.20;11.20;;;10.60;98.10;;;;;;5028795;28;20460;-80
2023/02/04 13:46:46;;;;;;;12.30;11.10;;;10.30;97.70;;;;;;5028244;28;20464;-80
2023/02/04 13:49:12;;;;;;;12.20;11.00;;;10.20;98.50;;;;;;5027732;28;20536;-80
2023/02/04 13:51:39;;;;;;;12.93;11.70;;;10.10;98.50;;;;;;5027356;28;20472;-82
2023/02/04 13:54:06;;;;;;;11.20;10.37;;;10.20;99.00;;;;;;5025572;28;20972;-81
2023/02/04 13:56:33;;;;;;;12.87;11.70;;;10.20;98.20;;;;;;5027711;28;20445;-82
2023/02/04 13:58:59;;;;;;;12.63;10.30;;;10.00;98.60;;;;;;5028445;28;20467;-81
2023/02/04 14:01:27;;;;;;;13.80;12.50;;;9.80;99.90;;;;;;5027499;28;20823;-80
2023/02/04 14:03:55;;;;;;;13.13;11.10;;;9.70;99.90;;;;;;5028009;28;20481;-80
2023/02/04 14:06:22;;;;;;;11.97;11.07;;;9.50;99.90;;;;;;5028762;28;20793;-80
2023/02/04 14:08:49;;;;;;;12.30;11.40;;;9.40;99.90;;;;;;5027877;28;20897;-82
2023/02/04 14:11:15;;;;;;;11.90;10.73;;;9.40;99.90;;;;;;5028186;28;20484;-79
2023/02/04 14:13:42;;;;;;;10.90;9.90;;;9.20;99.90;;;;;;5027992;28;20464;-81
2023/02/04 14:16:09;;;;;;;11.37;10.67;;;9.10;99.90;;;;;;5028013;28;20531;-80
2023/02/04 14:18:35;;;;;;;17.07;11.73;;;9.10;99.90;;;;;;5028428;28;20545;-81
2023/02/04 14:21:04;;;;;;;13.50;12.20;;;9.40;99.90;;;;;;5027558;28;20548;-83
2023/02/04 14:23:30;;;;;;;17.67;12.70;;;9.40;99.90;;;;;;5027873;28;20447;-83
2023/02/04 14:25:57;;;;;;;14.03;12.80;;;9.30;99.90;;;;;;5027578;28;21333;-81
2023/02/04 14:28:24;;;;;;;12.83;11.53;;;9.40;99.90;;;;;;5027653;28;20682;-81
2023/02/04 14:30:50;;;;;;;10.40;9.40;;;9.40;99.90;;;;;;5027486;28;20457;-81
2023/02/04 14:33:18;;;;;;;11.17;10.20;;;9.40;99.90;;;;;;5027477;28;20461;-80
2023/02/04 14:35:44;;;;;;;15.40;12.47;;;9.50;99.90;;;;;;5027433;28;20945;-82
2023/02/04 14:38:14;;;;;;;12.80;11.70;;;9.60;99.90;;;;;;5027263;28;20465;-81
2023/02/04 14:40:41;;;;;;;12.00;10.80;;;9.60;99.90;;;;;;5027697;28;20461;-82
2023/02/04 14:43:09;;;;;;;12.90;11.63;;;9.70;99.90;;;;;;5027186;28;20484;-81
2023/02/04 14:45:36;;;;;;;12.70;11.70;;;9.80;99.90;;;;;;5027453;28;20531;-81
2023/02/04 14:48:03;;;;;;;11.77;10.83;;;9.90;99.90;;;;;;5030105;28;20445;-81
2023/02/04 14:50:30;;;;;;;11.77;10.30;;;10.00;99.90;;;;;;5030661;28;20565;-80
2023/02/04 14:52:57;;;;;;;12.63;11.53;;;9.90;99.90;;;;;;5030915;28;20831;-80
2023/02/04 14:55:25;;;;;;;17.27;11.70;;;10.10;99.90;;;;;;5031710;28;20385;-82
2023/02/04 14:57:53;;;;;;;13.27;11.50;;;10.30;99.30;;;;;;5031470;28;21027;-82
2023/02/04 15:00:20;;;;;;;14.80;11.60;;;10.30;98.20;;;;;;5031065;28;20463;-82
2023/02/04 15:02:47;;;;;;;11.17;10.27;;;10.30;98.30;;;;;;5030948;28;20485;-83
2023/02/04 15:05:14;;;;;;;12.20;10.63;;;10.30;98.60;;;;;;5030836;28;20943;-83
2023/02/04 15:07:42;;;;;;;11.73;10.60;;;10.30;98.50;;;;;;5032086;28;20551;-83
2023/02/04 15:10:10;;;;;;;19.47;10.87;;;10.40;98.70;;;;;;5033097;28;20460;-82
2023/02/04 15:12:38;;;;;;;11.57;10.40;;;10.30;98.40;;;;;;5032338;28;20445;-81
2023/02/04 15:15:06;;;;;;;13.50;11.23;;;10.00;98.50;;;;;;5032215;28;20964;-81
2023/02/04 15:17:32;;;;;;;12.10;10.90;;;10.00;98.80;;;;;;5032944;28;20450;-82
2023/02/04 15:19:59;;;;;;;11.30;10.37;;;10.00;98.40;;;;;;5032928;28;20449;-82
2023/02/04 15:22:26;;;;;;;11.10;10.40;;;9.80;98.50;;;;;;5033049;28;21082;-82
2023/02/04 15:24:52;;;;;;;12.53;11.57;;;9.70;99.00;;;;;;5032462;28;20454;-81
2023/02/04 15:27:19;;;;;;;11.67;10.87;;;9.70;99.60;;;;;;5031121;28;20457;-81
2023/02/04 15:29:47;;;;;;;11.17;10.13;;;9.60;99.70;;;;;;5031031;28;20457;-80
2023/02/04 15:32:14;;;;;;;14.33;11.40;;;9.50;99.90;;;;;;5031425;28;20457;-81
2023/02/04 15:34:40;;;;;;;12.50;11.40;;;9.40;99.90;;;;;;5031174;28;20821;-81
2023/02/04 15:37:09;;;;;;;12.17;11.03;;;9.30;99.90;;;;;;5030987;28;20887;-80
2023/02/04 15:39:36;;;;;;;11.27;10.47;;;9.30;99.90;;;;;;5030982;28;20462;-81
2023/02/04 15:42:03;;;;;;;11.83;10.83;;;9.10;99.90;;;;;;5030701;28;20492;-81
2023/02/04 15:44:29;;;;;;;10.80;10.00;;;9.00;99.90;;;;;;5030742;28;20948;-81
2023/02/04 15:46:57;;;;;;;11.50;10.60;;;8.90;99.90;;;;;;5030729;28;20460;-81
2023/02/04 15:49:24;;;;;;;11.60;10.57;;;8.70;99.90;;;;;;5030433;28;20854;-80
2023/02/04 15:51:51;;;;;;;10.43;9.67;;;8.60;99.90;;;;;;5031032;28;20452;-81
2023/02/04 15:54:17;;;;;;;11.03;10.23;;;8.40;99.90;;;;;;5031048;28;20924;-80
2023/02/04 15:56:44;;;;;;;12.57;11.00;;;8.40;99.90;;;;;;5031009;28;20817;-80
2023/02/04 15:59:11;;;;;;;10.37;9.70;;;8.20;99.90;;;;;;5030586;28;20872;-81
2023/02/04 16:01:37;;;;;;;13.20;12.23;;;8.20;99.90;;;;;;5030327;28;20487;-81
2023/02/04 16:04:06;;;;;;;12.43;11.30;;;8.10;99.90;;;;;;5030574;28;20567;-81
2023/02/04 16:06:32;;;;;;;11.50;10.53;;;8.10;99.90;;;;;;5030530;28;20483;-80
2023/02/04 16:08:59;;;;;;;15.20;10.63;;;8.10;99.90;;;;;;5030713;28;20454;-81
2023/02/04 16:11:26;;;;;;;12.60;11.60;;;8.10;99.90;;;;;;5030508;28;20482;-81
2023/02/04 16:13:52;;;;;;;14.57;11.27;;;8.10;99.90;;;;;;5030008;28;20817;-80
2023/02/04 16:16:19;;;;;;;11.60;10.50;;;8.10;99.90;;;;;;5030734;28;20464;-81
2023/02/04 16:18:46;;;;;;;12.97;12.00;;;8.10;99.90;;;;;;5030932;28;20500;-82
2023/02/04 16:21:14;;;;;;;13.17;12.00;;;8.20;99.90;;;;;;5029672;28;20808;-81
2023/02/04 16:23:41;;;;;;;15.13;13.87;;;8.10;99.90;;;;;;5030013;28;20485;-81
2023/02/04 16:26:08;;;;;;;12.70;11.80;;;8.10;99.90;;;;;;5029758;28;20456;-80
2023/02/04 16:28:34;;;;;;;13.63;12.20;;;8.00;99.90;;;;;;5030262;28;20473;-81
2023/02/04 16:31:01;;;;;;;12.50;11.47;;;7.90;99.90;;;;;;5029624;28;20459;-81
2023/02/04 16:33:28;;;;;;;13.00;11.70;;;7.80;99.90;;;;;;5029843;28;20445;-81
2023/02/04 16:36:02;;;;;;;13.63;12.20;;;7.70;99.90;;;;;;5029826;28;20459;-81
2023/02/04 16:38:31;;;;;;;13.37;12.13;;;7.60;99.90;;;;;;5029948;28;20453;-81
2023/02/04 16:40:58;;;;;;;12.57;11.23;;;7.40;99.90;;;;;;5029609;28;20461;-80
2023/02/04 16:43:25;;;;;;;12.27;11.27;;;7.40;99.90;;;;;;5029337;28;20909;-81
2023/02/04 16:45:52;;;;;;;12.33;11.10;;;7.30;99.90;;;;;;5029533;28;20460;-81
2023/02/04 16:48:18;;;;;;;13.73;12.63;;;7.20;99.90;;;;;;5029551;28;20455;-79
2023/02/04 16:50:45;;;;;;;11.10;10.00;;;7.10;99.90;;;;;;5029511;28;20459;-81
2023/02/04 16:53:14;;;;;;;11.27;10.40;;;7.10;99.90;;;;;;5029842;28;20814;-81
2023/02/04 16:55:43;;;;;;;13.83;11.10;;;7.10;99.90;;;;;;5030312;28;20939;-81
2023/02/04 16:58:10;;;;;;;13.30;12.00;;;7.10;99.90;;;;;;5040014;28;20453;-81
2023/02/04 17:00:40;;;;;;;18.67;11.80;;;7.00;99.90;;;;;;5047901;28;20444;-80
2023/02/04 17:03:07;;;;;;;11.43;10.73;;;7.00;99.90;;;;;;5050318;28;20505;-80
2023/02/04 17:05:34;;;;;;;15.13;14.17;;;6.90;99.90;;;;;;5046656;28;21016;-80
2023/02/04 17:08:01;;;;;;;12.57;11.40;;;6.90;99.90;;;;;;5045400;28;20454;-81
2023/02/04 17:13:13;;;;;;;11.97;10.83;;;6.70;99.90;;;;;;5030338;28;20932;-82
2023/02/04 17:15:40;;;;;;;11.03;10.13;;;6.70;99.90;;;;;;5029197;28;20844;-82
2023/02/04 17:18:06;;;;;;;17.43;11.13;;;6.60;99.90;;;;;;5029488;28;20453;-81
2023/02/04 17:20:33;;;;;;;14.73;10.43;;;6.60;99.90;;;;;;5029551;28;20467;-82
2023/02/04 17:23:00;;;;;;;18.77;12.20;;;6.50;99.90;;;;;;5028936;28;20487;-81
2023/02/04 17:25:27;;;;;;;11.73;11.00;;;6.40;99.90;;;;;;5029086;28;20515;-81
2023/02/04 17:27:55;;;;;;;11.07;10.40;;;6.30;99.90;;;;;;5028784;28;20440;-82
2023/02/04 17:30:23;;;;;;;14.97;11.40;;;6.30;99.90;;;;;;5028846;28;20498;-81
2023/02/04 17:32:50;;;;;;;13.17;12.07;;;6.10;99.90;;;;;;5029734;28;20450;-82
2023/02/04 17:35:16;;;;;;;15.30;13.20;;;6.00;99.90;;;;;;5029135;28;20486;-81
2023/02/04 17:37:43;;;;;;;14.17;12.80;;;5.80;99.90;;;;;;5029027;28;20451;-81
2023/02/04 17:40:12;;;;;;;13.10;11.90;;;5.80;99.90;;;;;;5028609;28;20455;-81
2023/02/04 17:42:39;;;;;;;11.10;10.07;;;5.70;99.90;;;;;;5027836;28;21032;-81
2023/02/04 17:45:09;;;;;;;13.20;11.80;;;5.70;99.90;;;;;;5028553;28;20447;-81
2023/02/04 17:47:37;;;;;;;11.30;10.63;;;5.70;99.90;;;;;;5028607;28;20452;-82
2023/02/04 17:50:05;;;;;;;12.07;11.03;;;5.70;99.90;;;;;;5028663;28;20457;-82
2023/02/04 17:52:33;;;;;;;13.50;12.13;;;5.70;99.90;;;;;;5029013;28;20548;-80
2023/02/04 17:55:00;;;;;;;13.67;12.47;;;5.70;99.90;;;;;;5028937;28;20482;-82
2023/02/04 17:57:27;;;;;;;13.83;12.13;;;5.60;99.90;;;;;;5028494;28;20454;-82
